sensor_id;sensor_type;location;lat;lon;timestamp;pressure;altitude;pressure_sealevel;temperature;humidity
71666;BME280;59503;53.486;10.196;2024-02-04T00:01:47;101834.56;;;5.26;100.00
71666;BME280;59503;53.486;10.196;2024-02-04T00:04:12;101830.19;;;5.30;100.00
71666;BME280;59503;53.486;10.196;2024-02-04T00:06:38;101826.00;;;5.24;100.00
71666;BME280;59503;53.486;10.196;2024-02-04T00:09:03;101831.41;;;5.24;100.00
71666;BME280;59503;53.486;10.196;2024-02-04T00:11:30;101816.00;;;5.25;100.00
71666;BME280;59503;53.486;10.196;2024-02-04T00:13:55;101817.00;;;5.29;100.00
71666;BME280;59503;53.486;10.196;2024-02-04T00:16:21;101810.00;;;5.28;100.00
71666;BME280;59503;53.486;10.196;2024-02-04T00:18:46;101812.22;;;5.26;100.00
71666;BME280;59503;53.486;10.196;2024-02-04T00:21:12;101812.72;;;5.14;100.00
71666;BME280;59503;53.486;10.196;2024-02-04T00:23:37;101831.38;;;5.11;100.00
71666;BME280;59503;53.486;10.196;2024-02-04T00:26:03;101830.97;;;5.03;100.00
71666;BME280;59503;53.486;10.196;2024-02-04T00:28:29;101830.97;;;4.90;100.00
71666;BME280;59503;53.486;10.196;2024-02-04T00:30:54;101823.47;;;4.87;100.00
71666;BME280;59503;53.486;10.196;2024-02-04T00:33:23;101837.63;;;4.92;100.00
71666;BME280;59503;53.486;10.196;2024-02-04T00:35:49;101843.72;;;4.98;100.00
71666;BME280;59503;53.486;10.196;2024-02-04T00:38:14;101834.97;;;5.06;100.00
71666;BME280;59503;53.486;10.196;2024-02-04T00:40:40;101831.38;;;4.97;100.00
71666;BME280;59503;53.486;10.196;2024-02-04T00:43:05;101830.16;;;5.03;100.00
71666;BME280;59503;53.486;10.196;2024-02-04T00:45:31;101807.03;;;5.02;100.00
71666;BME280;59503;53.486;10.196;2024-02-04T00:47:56;101801.34;;;5.03;100.00
71666;BME280;59503;53.486;10.196;2024-02-04T00:50:22;101820.13;;;5.22;100.00
71666;BME280;59503;53.486;10.196;2024-02-04T00:52:47;101805.22;;;5.11;100.00
71666;BME280;59503;53.486;10.196;2024-02-04T00:55:13;101788.66;;;5.18;100.00
71666;BME280;59503;53.486;10.196;2024-02-04T00:57:38;101785.94;;;5.18;100.00
71666;BME280;59503;53.486;10.196;2024-02-04T01:00:04;101787.16;;;5.12;100.00
71666;BME280;59503;53.486;10.196;2024-02-04T01:02:30;101783.16;;;5.09;100.00
71666;BME280;59503;53.486;10.196;2024-02-04T01:04:55;101775.06;;;5.09;100.00
71666;BME280;59503;53.486;10.196;2024-02-04T01:07:21;101784.78;;;5.10;100.00
71666;BME280;59503;53.486;10.196;2024-02-04T01:09:46;101782.28;;;5.00;100.00
71666;BME280;59503;53.486;10.196;2024-02-04T01:12:12;101783.47;;;5.07;100.00
71666;BME280;59503;53.486;10.196;2024-02-04T01:14:37;101766.72;;;5.11;100.00
71666;BME280;59503;53.486;10.196;2024-02-04T01:17:03;101766.00;;;5.05;100.00
71666;BME280;59503;53.486;10.196;2024-02-04T01:19:28;101772.38;;;5.09;100.00
71666;BME280;59503;53.486;10.196;2024-02-04T01:21:54;101772.09;;;5.11;100.00
71666;BME280;59503;53.486;10.196;2024-02-04T01:24:19;101776.28;;;5.17;100.00
71666;BME280;59503;53.486;10.196;2024-02-04T01:26:45;101785.66;;;5.33;100.00
71666;BME280;59503;53.486;10.196;2024-02-04T01:29:10;101777.19;;;5.39;100.00
71666;BME280;59503;53.486;10.196;2024-02-04T01:31:35;101777.44;;;5.38;100.00
71666;BME280;59503;53.486;10.196;2024-02-04T01:34:01;101767.69;;;5.42;100.00
71666;BME280;59503;53.486;10.196;2024-02-04T01:36:27;101769.34;;;5.51;100.00
71666;BME280;59503;53.486;10.196;2024-02-04T01:38:52;101769.22;;;5.56;100.00
71666;BME280;59503;53.486;10.196;2024-02-04T01:41:18;101774.53;;;5.61;100.00
71666;BME280;59503;53.486;10.196;2024-02-04T01:43:43;101773.94;;;5.64;100.00
71666;BME280;59503;53.486;10.196;2024-02-04T01:46:09;101768.91;;;5.71;100.00
71666;BME280;59503;53.486;10.196;2024-02-04T01:48:35;101773.41;;;5.76;100.00
71666;BME280;59503;53.486;10.196;2024-02-04T01:51:01;101770.00;;;5.70;100.00
71666;BME280;59503;53.486;10.196;2024-02-04T01:53:28;101758.81;;;5.77;100.00
71666;BME280;59503;53.486;10.196;2024-02-04T01:55:55;101762.22;;;5.82;100.00
71666;BME280;59503;53.486;10.196;2024-02-04T01:58:22;101767.41;;;5.79;100.00
71666;BME280;59503;53.486;10.196;2024-02-04T02:00:49;101766.19;;;5.85;100.00
71666;BME280;59503;53.486;10.196;2024-02-04T02:03:15;101772.78;;;5.92;100.00
71666;BME280;59503;53.486;10.196;2024-02-04T02:05:41;101771.16;;;5.91;100.00
71666;BME280;59503;53.486;10.196;2024-02-04T02:08:07;101770.78;;;5.98;100.00
71666;BME280;59503;53.486;10.196;2024-02-04T02:10:33;101768.72;;;6.03;100.00
71666;BME280;59503;53.486;10.196;2024-02-04T02:13:11;101772.91;;;6.09;100.00
71666;BME280;59503;53.486;10.196;2024-02-04T02:15:51;101759.19;;;6.19;100.00
71666;BME280;59503;53.486;10.196;2024-02-04T02:18:23;101756.66;;;6.23;100.00
71666;BME280;59503;53.486;10.196;2024-02-04T02:21:19;101758.56;;;6.22;100.00
71666;BME280;59503;53.486;10.196;2024-02-04T02:24:15;101758.44;;;6.27;100.00
71666;BME280;59503;53.486;10.196;2024-02-04T02:26:44;101760.00;;;6.28;100.00
71666;BME280;59503;53.486;10.196;2024-02-04T02:29:09;101745.75;;;6.28;100.00
71666;BME280;59503;53.486;10.196;2024-02-04T02:31:37;101744.31;;;6.30;100.00
71666;BME280;59503;53.486;10.196;2024-02-04T02:34:03;101735.59;;;6.33;100.00
71666;BME280;59503;53.486;10.196;2024-02-04T02:36:34;101738.47;;;6.37;100.00
71666;BME280;59503;53.486;10.196;2024-02-04T02:39:09;101736.56;;;6.38;100.00
71666;BME280;59503;53.486;10.196;2024-02-04T02:41:36;101731.50;;;6.36;100.00
71666;BME280;59503;53.486;10.196;2024-02-04T02:44:03;101719.38;;;6.33;100.00
71666;BME280;59503;53.486;10.196;2024-02-04T02:46:30;101730.38;;;6.37;100.00
71666;BME280;59503;53.486;10.196;2024-02-04T02:48:56;101723.81;;;6.29;100.00
71666;BME280;59503;53.486;10.196;2024-02-04T02:51:22;101719.66;;;6.23;100.00
71666;BME280;59503;53.486;10.196;2024-02-04T02:53:47;101718.31;;;6.12;100.00
71666;BME280;59503;53.486;10.196;2024-02-04T02:56:13;101721.13;;;6.07;100.00
71666;BME280;59503;53.486;10.196;2024-02-04T02:58:38;101719.38;;;6.03;100.00
71666;BME280;59503;53.486;10.196;2024-02-04T03:01:04;101723.59;;;5.95;100.00
71666;BME280;59503;53.486;10.196;2024-02-04T03:03:31;101718.19;;;5.95;100.00
71666;BME280;59503;53.486;10.196;2024-02-04T03:05:56;101716.59;;;5.94;100.00
71666;BME280;59503;53.486;10.196;2024-02-04T03:08:22;101715.63;;;5.90;100.00
71666;BME280;59503;53.486;10.196;2024-02-04T03:10:47;101718.94;;;5.87;100.00
71666;BME280;59503;53.486;10.196;2024-02-04T03:13:13;101717.41;;;5.81;100.00
71666;BME280;59503;53.486;10.196;2024-02-04T03:15:38;101712.44;;;5.75;100.00
71666;BME280;59503;53.486;10.196;2024-02-04T03:18:06;101714.47;;;5.69;100.00
71666;BME280;59503;53.486;10.196;2024-02-04T03:20:31;101699.38;;;5.68;100.00
71666;BME280;59503;53.486;10.196;2024-02-04T03:22:57;101696.69;;;5.68;100.00
71666;BME280;59503;53.486;10.196;2024-02-04T03:25:22;101694.28;;;5.67;100.00
71666;BME280;59503;53.486;10.196;2024-02-04T03:27:52;101700.50;;;5.67;100.00
71666;BME280;59503;53.486;10.196;2024-02-04T03:30:18;101696.03;;;5.63;100.00
71666;BME280;59503;53.486;10.196;2024-02-04T03:32:43;101699.94;;;5.57;100.00
71666;BME280;59503;53.486;10.196;2024-02-04T03:35:09;101690.25;;;5.56;100.00
71666;BME280;59503;53.486;10.196;2024-02-04T03:37:34;101696.72;;;5.55;100.00
71666;BME280;59503;53.486;10.196;2024-02-04T03:40:00;101686.75;;;5.55;100.00
71666;BME280;59503;53.486;10.196;2024-02-04T03:42:26;101695.34;;;5.57;100.00
71666;BME280;59503;53.486;10.196;2024-02-04T03:44:51;101690.56;;;5.54;100.00
71666;BME280;59503;53.486;10.196;2024-02-04T03:47:17;101695.25;;;5.49;100.00
71666;BME280;59503;53.486;10.196;2024-02-04T03:49:42;101692.19;;;5.42;100.00
71666;BME280;59503;53.486;10.196;2024-02-04T03:52:07;101693.59;;;5.39;100.00
71666;BME280;59503;53.486;10.196;2024-02-04T03:54:33;101684.63;;;5.30;100.00
71666;BME280;59503;53.486;10.196;2024-02-04T03:56:58;101684.66;;;5.17;100.00
71666;BME280;59503;53.486;10.196;2024-02-04T03:59:24;101681.16;;;5.16;100.00
71666;BME280;59503;53.486;10.196;2024-02-04T04:01:50;101678.34;;;5.21;100.00
71666;BME280;59503;53.486;10.196;2024-02-04T04:04:16;101666.47;;;5.22;100.00
71666;BME280;59503;53.486;10.196;2024-02-04T04:06:42;101666.69;;;5.26;100.00
71666;BME280;59503;53.486;10.196;2024-02-04T04:09:08;101673.16;;;5.25;100.00
71666;BME280;59503;53.486;10.196;2024-02-04T04:11:34;101678.84;;;5.23;100.00
71666;BME280;59503;53.486;10.196;2024-02-04T04:13:59;101674.47;;;5.27;100.00
71666;BME280;59503;53.486;10.196;2024-02-04T04:16:24;101675.66;;;5.21;100.00
71666;BME280;59503;53.486;10.196;2024-02-04T04:18:50;101681.03;;;5.21;100.00
71666;BME280;59503;53.486;10.196;2024-02-04T04:21:15;101674.88;;;5.21;100.00
71666;BME280;59503;53.486;10.196;2024-02-04T04:23:41;101673.06;;;5.16;100.00
71666;BME280;59503;53.486;10.196;2024-02-04T04:26:06;101676.97;;;5.10;100.00
71666;BME280;59503;53.486;10.196;2024-02-04T04:28:32;101660.81;;;5.10;100.00
71666;BME280;59503;53.486;10.196;2024-02-04T04:30:57;101655.53;;;5.05;100.00
71666;BME280;59503;53.486;10.196;2024-02-04T04:33:23;101666.00;;;5.06;100.00
71666;BME280;59503;53.486;10.196;2024-02-04T04:35:48;101675.59;;;4.99;100.00
71666;BME280;59503;53.486;10.196;2024-02-04T04:38:14;101682.69;;;5.08;100.00
71666;BME280;59503;53.486;10.196;2024-02-04T04:40:39;101683.84;;;5.16;100.00
71666;BME280;59503;53.486;10.196;2024-02-04T04:43:07;101687.25;;;5.22;100.00
71666;BME280;59503;53.486;10.196;2024-02-04T04:45:33;101695.03;;;5.23;100.00
71666;BME280;59503;53.486;10.196;2024-02-04T04:47:58;101686.94;;;5.23;100.00
71666;BME280;59503;53.486;10.196;2024-02-04T04:50:24;101691.03;;;5.21;100.00
71666;BME280;59503;53.486;10.196;2024-02-04T04:52:50;101679.84;;;5.27;100.00
71666;BME280;59503;53.486;10.196;2024-02-04T04:55:16;101670.97;;;5.27;100.00
71666;BME280;59503;53.486;10.196;2024-02-04T04:57:41;101661.47;;;5.29;100.00
71666;BME280;59503;53.486;10.196;2024-02-04T05:00:07;101655.19;;;5.20;100.00
71666;BME280;59503;53.486;10.196;2024-02-04T05:02:36;101652.31;;;5.17;100.00
71666;BME280;59503;53.486;10.196;2024-02-04T05:05:01;101650.44;;;5.17;100.00
71666;BME280;59503;53.486;10.196;2024-02-04T05:07:27;101638.16;;;5.11;100.00
71666;BME280;59503;53.486;10.196;2024-02-04T05:09:52;101638.84;;;5.17;100.00
71666;BME280;59503;53.486;10.196;2024-02-04T05:12:18;101636.06;;;5.08;100.00
71666;BME280;59503;53.486;10.196;2024-02-04T05:14:44;101634.25;;;5.17;100.00
71666;BME280;59503;53.486;10.196;2024-02-04T05:17:09;101634.88;;;5.14;100.00
71666;BME280;59503;53.486;10.196;2024-02-04T05:19:35;101637.19;;;5.07;100.00
71666;BME280;59503;53.486;10.196;2024-02-04T05:22:01;101630.06;;;5.11;100.00
71666;BME280;59503;53.486;10.196;2024-02-04T05:24:27;101627.16;;;5.07;100.00
71666;BME280;59503;53.486;10.196;2024-02-04T05:26:52;101635.56;;;5.06;100.00
71666;BME280;59503;53.486;10.196;2024-02-04T05:29:18;101634.19;;;5.08;100.00
71666;BME280;59503;53.486;10.196;2024-02-04T05:31:43;101632.47;;;4.99;100.00
71666;BME280;59503;53.486;10.196;2024-02-04T05:34:10;101625.00;;;4.96;100.00
71666;BME280;59503;53.486;10.196;2024-02-04T05:36:35;101623.13;;;4.96;100.00
71666;BME280;59503;53.486;10.196;2024-02-04T05:39:11;101623.81;;;5.02;100.00
71666;BME280;59503;53.486;10.196;2024-02-04T05:41:38;101635.56;;;5.06;100.00
71666;BME280;59503;53.486;10.196;2024-02-04T05:44:03;101627.16;;;5.07;100.00
71666;BME280;59503;53.486;10.196;2024-02-04T05:46:29;101611.81;;;5.08;100.00
71666;BME280;59503;53.486;10.196;2024-02-04T05:48:54;101613.38;;;5.09;100.00
71666;BME280;59503;53.486;10.196;2024-02-04T05:51:21;101598.03;;;5.09;100.00
71666;BME280;59503;53.486;10.196;2024-02-04T05:53:47;101608.81;;;5.09;100.00
71666;BME280;59503;53.486;10.196;2024-02-04T05:56:12;101601.66;;;5.05;100.00
71666;BME280;59503;53.486;10.196;2024-02-04T05:58:38;101604.22;;;5.10;100.00
71666;BME280;59503;53.486;10.196;2024-02-04T06:01:03;101602.16;;;5.07;100.00
71666;BME280;59503;53.486;10.196;2024-02-04T06:03:28;101608.53;;;4.97;100.00
71666;BME280;59503;53.486;10.196;2024-02-04T06:05:54;101608.44;;;4.89;100.00
71666;BME280;59503;53.486;10.196;2024-02-04T06:08:19;101619.69;;;5.04;100.00
71666;BME280;59503;53.486;10.196;2024-02-04T06:10:45;101626.59;;;5.11;100.00
71666;BME280;59503;53.486;10.196;2024-02-04T06:13:10;101616.28;;;5.13;100.00
71666;BME280;59503;53.486;10.196;2024-02-04T06:15:36;101614.88;;;5.15;100.00
71666;BME280;59503;53.486;10.196;2024-02-04T06:18:01;101618.19;;;5.12;100.00
71666;BME280;59503;53.486;10.196;2024-02-04T06:20:27;101613.78;;;5.16;100.00
71666;BME280;59503;53.486;10.196;2024-02-04T06:22:53;101604.31;;;5.19;100.00
71666;BME280;59503;53.486;10.196;2024-02-04T06:25:18;101601.00;;;5.22;100.00
71666;BME280;59503;53.486;10.196;2024-02-04T06:27:43;101600.56;;;5.28;100.00
71666;BME280;59503;53.486;10.196;2024-02-04T06:30:09;101600.56;;;5.28;100.00
71666;BME280;59503;53.486;10.196;2024-02-04T06:32:35;101602.28;;;5.24;100.00
71666;BME280;59503;53.486;10.196;2024-02-04T06:35:00;101596.59;;;5.26;100.00
71666;BME280;59503;53.486;10.196;2024-02-04T06:37:26;101593.84;;;5.17;100.00
71666;BME280;59503;53.486;10.196;2024-02-04T06:39:54;101589.84;;;5.15;100.00
71666;BME280;59503;53.486;10.196;2024-02-04T06:42:19;101589.06;;;5.14;100.00
71666;BME280;59503;53.486;10.196;2024-02-04T06:44:45;101580.47;;;5.12;100.00
71666;BME280;59503;53.486;10.196;2024-02-04T06:47:11;101589.53;;;5.16;100.00
71666;BME280;59503;53.486;10.196;2024-02-04T06:49:43;101573.34;;;5.16;100.00
71666;BME280;59503;53.486;10.196;2024-02-04T06:52:08;101577.66;;;5.17;100.00
71666;BME280;59503;53.486;10.196;2024-02-04T06:54:34;101576.84;;;5.17;100.00
71666;BME280;59503;53.486;10.196;2024-02-04T06:56:59;101583.44;;;5.24;100.00
71666;BME280;59503;53.486;10.196;2024-02-04T06:59:25;101570.66;;;5.16;100.00
71666;BME280;59503;53.486;10.196;2024-02-04T07:01:50;101569.50;;;5.08;100.00
71666;BME280;59503;53.486;10.196;2024-02-04T07:04:17;101566.19;;;5.12;100.00
71666;BME280;59503;53.486;10.196;2024-02-04T07:06:43;101574.47;;;5.15;100.00
71666;BME280;59503;53.486;10.196;2024-02-04T07:09:08;101570.28;;;5.09;100.00
71666;BME280;59503;53.486;10.196;2024-02-04T07:11:34;101566.00;;;5.08;100.00
71666;BME280;59503;53.486;10.196;2024-02-04T07:13:59;101562.19;;;5.09;100.00
71666;BME280;59503;53.486;10.196;2024-02-04T07:16:25;101551.13;;;5.11;100.00
71666;BME280;59503;53.486;10.196;2024-02-04T07:18:51;101550.94;;;5.07;100.00
71666;BME280;59503;53.486;10.196;2024-02-04T07:21:16;101550.66;;;5.08;100.00
71666;BME280;59503;53.486;10.196;2024-02-04T07:23:42;101569.06;;;5.15;100.00
71666;BME280;59503;53.486;10.196;2024-02-04T07:26:08;101568.59;;;5.13;100.00
71666;BME280;59503;53.486;10.196;2024-02-04T07:28:34;101584.13;;;5.16;100.00
71666;BME280;59503;53.486;10.196;2024-02-04T07:31:00;101572.09;;;5.14;100.00
71666;BME280;59503;53.486;10.196;2024-02-04T07:33:25;101560.88;;;5.20;100.00
71666;BME280;59503;53.486;10.196;2024-02-04T07:35:51;101564.84;;;5.23;100.00
71666;BME280;59503;53.486;10.196;2024-02-04T07:38:16;101563.06;;;5.18;100.00
71666;BME280;59503;53.486;10.196;2024-02-04T07:40:42;101562.78;;;5.42;100.00
71666;BME280;59503;53.486;10.196;2024-02-04T07:43:08;101557.75;;;5.49;100.00
71666;BME280;59503;53.486;10.196;2024-02-04T07:45:34;101546.84;;;5.54;100.00
71666;BME280;59503;53.486;10.196;2024-02-04T07:48:00;101544.16;;;5.54;100.00
71666;BME280;59503;53.486;10.196;2024-02-04T07:50:27;101548.91;;;5.57;100.00
71666;BME280;59503;53.486;10.196;2024-02-04T07:52:53;101554.97;;;5.62;100.00
71666;BME280;59503;53.486;10.196;2024-02-04T07:55:19;101548.78;;;5.62;100.00
71666;BME280;59503;53.486;10.196;2024-02-04T07:57:44;101546.28;;;5.65;100.00
71666;BME280;59503;53.486;10.196;2024-02-04T08:00:10;101544.44;;;5.74;100.00
71666;BME280;59503;53.486;10.196;2024-02-04T08:02:36;101543.19;;;5.80;100.00
71666;BME280;59503;53.486;10.196;2024-02-04T08:05:03;101548.78;;;5.84;100.00
71666;BME280;59503;53.486;10.196;2024-02-04T08:07:29;101536.66;;;5.81;100.00
71666;BME280;59503;53.486;10.196;2024-02-04T08:09:54;101537.19;;;5.83;100.00
71666;BME280;59503;53.486;10.196;2024-02-04T08:12:20;101539.56;;;5.85;100.00
71666;BME280;59503;53.486;10.196;2024-02-04T08:14:45;101546.44;;;5.91;100.00
71666;BME280;59503;53.486;10.196;2024-02-04T08:17:11;101547.88;;;5.97;100.00
71666;BME280;59503;53.486;10.196;2024-02-04T08:19:36;101544.88;;;5.98;100.00
71666;BME280;59503;53.486;10.196;2024-02-04T08:22:02;101535.69;;;5.99;100.00
71666;BME280;59503;53.486;10.196;2024-02-04T08:24:27;101560.19;;;6.11;100.00
71666;BME280;59503;53.486;10.196;2024-02-04T08:26:54;101547.00;;;6.18;100.00
71666;BME280;59503;53.486;10.196;2024-02-04T08:29:20;101558.97;;;6.26;100.00
71666;BME280;59503;53.486;10.196;2024-02-04T08:31:45;101571.31;;;6.18;100.00
71666;BME280;59503;53.486;10.196;2024-02-04T08:34:11;101551.47;;;6.14;100.00
71666;BME280;59503;53.486;10.196;2024-02-04T08:36:36;101545.91;;;6.19;100.00
71666;BME280;59503;53.486;10.196;2024-02-04T08:39:02;101552.41;;;6.18;100.00
71666;BME280;59503;53.486;10.196;2024-02-04T08:41:28;101543.53;;;6.18;100.00
71666;BME280;59503;53.486;10.196;2024-02-04T08:43:53;101555.09;;;6.18;100.00
71666;BME280;59503;53.486;10.196;2024-02-04T08:46:18;101544.66;;;6.25;100.00
71666;BME280;59503;53.486;10.196;2024-02-04T08:48:44;101544.84;;;6.29;100.00
71666;BME280;59503;53.486;10.196;2024-02-04T08:51:12;101545.00;;;6.32;100.00
71666;BME280;59503;53.486;10.196;2024-02-04T08:53:38;101548.69;;;6.37;100.00
71666;BME280;59503;53.486;10.196;2024-02-04T08:56:05;101555.34;;;6.39;100.00
71666;BME280;59503;53.486;10.196;2024-02-04T08:58:31;101547.22;;;6.30;100.00
71666;BME280;59503;53.486;10.196;2024-02-04T09:00:56;101538.63;;;6.28;100.00
71666;BME280;59503;53.486;10.196;2024-02-04T09:03:22;101542.78;;;6.35;100.00
71666;BME280;59503;53.486;10.196;2024-02-04T09:05:48;101539.94;;;6.40;100.00
71666;BME280;59503;53.486;10.196;2024-02-04T09:08:14;101526.28;;;6.45;100.00
71666;BME280;59503;53.486;10.196;2024-02-04T09:10:39;101511.66;;;6.46;100.00
71666;BME280;59503;53.486;10.196;2024-02-04T09:13:04;101520.09;;;6.53;100.00
71666;BME280;59503;53.486;10.196;2024-02-04T09:15:30;101517.91;;;6.55;100.00
71666;BME280;59503;53.486;10.196;2024-02-04T09:17:55;101504.53;;;6.41;100.00
71666;BME280;59503;53.486;10.196;2024-02-04T09:20:21;101516.91;;;6.51;100.00
71666;BME280;59503;53.486;10.196;2024-02-04T09:22:46;101517.06;;;6.46;100.00
71666;BME280;59503;53.486;10.196;2024-02-04T09:25:11;101524.84;;;6.47;100.00
71666;BME280;59503;53.486;10.196;2024-02-04T09:27:37;101535.66;;;6.47;100.00
71666;BME280;59503;53.486;10.196;2024-02-04T09:30:03;101535.81;;;6.42;100.00
71666;BME280;59503;53.486;10.196;2024-02-04T09:32:29;101525.50;;;6.44;100.00
71666;BME280;59503;53.486;10.196;2024-02-04T09:34:57;101530.91;;;6.53;100.00
71666;BME280;59503;53.486;10.196;2024-02-04T09:37:23;101534.41;;;6.45;100.00
71666;BME280;59503;53.486;10.196;2024-02-04T09:39:49;101540.75;;;6.49;100.00
71666;BME280;59503;53.486;10.196;2024-02-04T09:42:19;101542.69;;;6.57;100.00
71666;BME280;59503;53.486;10.196;2024-02-04T09:44:49;101537.59;;;6.55;100.00
71666;BME280;59503;53.486;10.196;2024-02-04T09:47:14;101537.94;;;6.71;100.00
71666;BME280;59503;53.486;10.196;2024-02-04T09:49:40;101540.13;;;6.69;100.00
71666;BME280;59503;53.486;10.196;2024-02-04T09:52:09;101530.63;;;6.71;100.00
71666;BME280;59503;53.486;10.196;2024-02-04T09:54:50;101530.78;;;6.75;100.00
71666;BME280;59503;53.486;10.196;2024-02-04T09:57:21;101541.44;;;6.80;100.00
71666;BME280;59503;53.486;10.196;2024-02-04T09:59:46;101523.78;;;6.91;100.00
71666;BME280;59503;53.486;10.196;2024-02-04T10:02:13;101539.53;;;6.97;100.00
71666;BME280;59503;53.486;10.196;2024-02-04T10:04:38;101534.59;;;6.91;100.00
71666;BME280;59503;53.486;10.196;2024-02-04T10:07:04;101538.75;;;6.88;100.00
71666;BME280;59503;53.486;10.196;2024-02-04T10:09:29;101522.69;;;6.92;100.00
71666;BME280;59503;53.486;10.196;2024-02-04T10:11:56;101521.09;;;6.91;100.00
71666;BME280;59503;53.486;10.196;2024-02-04T10:14:22;101518.72;;;6.89;100.00
71666;BME280;59503;53.486;10.196;2024-02-04T10:16:47;101513.16;;;6.94;100.00
71666;BME280;59503;53.486;10.196;2024-02-04T10:19:13;101511.25;;;6.95;100.00
71666;BME280;59503;53.486;10.196;2024-02-04T10:21:38;101491.38;;;6.82;100.00
71666;BME280;59503;53.486;10.196;2024-02-04T10:24:06;101505.34;;;6.93;100.00
71666;BME280;59503;53.486;10.196;2024-02-04T10:26:32;101494.22;;;6.94;100.00
71666;BME280;59503;53.486;10.196;2024-02-04T10:29:01;101492.00;;;7.05;100.00
71666;BME280;59503;53.486;10.196;2024-02-04T10:31:27;101489.78;;;7.07;100.00
71666;BME280;59503;53.486;10.196;2024-02-04T10:33:54;101490.25;;;7.09;100.00
71666;BME280;59503;53.486;10.196;2024-02-04T10:36:19;101505.66;;;7.17;100.00
71666;BME280;59503;53.486;10.196;2024-02-04T10:38:45;101492.31;;;7.20;100.00
71666;BME280;59503;53.486;10.196;2024-02-04T10:41:17;101495.78;;;7.12;100.00
71666;BME280;59503;53.486;10.196;2024-02-04T10:43:44;101495.03;;;7.12;100.00
71666;BME280;59503;53.486;10.196;2024-02-04T10:46:13;101502.00;;;7.13;100.00
71666;BME280;59503;53.486;10.196;2024-02-04T10:48:41;101482.44;;;7.07;100.00
71666;BME280;59503;53.486;10.196;2024-02-04T10:51:14;101473.72;;;7.10;100.00
71666;BME280;59503;53.486;10.196;2024-02-04T10:53:44;101485.31;;;7.11;100.00
71666;BME280;59503;53.486;10.196;2024-02-04T10:58:42;101475.13;;;7.16;100.00
71666;BME280;59503;53.486;10.196;2024-02-04T11:01:10;101469.41;;;7.18;100.00
71666;BME280;59503;53.486;10.196;2024-02-04T11:03:36;101470.22;;;7.10;100.00
71666;BME280;59503;53.486;10.196;2024-02-04T11:06:03;101467.81;;;7.17;100.00
71666;BME280;59503;53.486;10.196;2024-02-04T11:08:29;101464.47;;;7.20;100.00
71666;BME280;59503;53.486;10.196;2024-02-04T11:10:55;101466.03;;;7.29;100.00
71666;BME280;59503;53.486;10.196;2024-02-04T11:13:23;101479.72;;;7.24;100.00
71666;BME280;59503;53.486;10.196;2024-02-04T11:15:49;101459.84;;;7.29;100.00
71666;BME280;59503;53.486;10.196;2024-02-04T11:21:07;101467.97;;;7.29;100.00
71666;BME280;59503;53.486;10.196;2024-02-04T11:26:31;101443.44;;;7.34;100.00
71666;BME280;59503;53.486;10.196;2024-02-04T11:28:58;101439.28;;;7.36;100.00
71666;BME280;59503;53.486;10.196;2024-02-04T11:31:23;101455.00;;;7.43;100.00
71666;BME280;59503;53.486;10.196;2024-02-04T11:33:53;101438.13;;;7.46;100.00
71666;BME280;59503;53.486;10.196;2024-02-04T11:36:24;101452.59;;;7.58;100.00
71666;BME280;59503;53.486;10.196;2024-02-04T11:38:50;101448.47;;;7.52;100.00
71666;BME280;59503;53.486;10.196;2024-02-04T11:41:23;101450.53;;;7.55;100.00
71666;BME280;59503;53.486;10.196;2024-02-04T11:43:52;101449.72;;;7.55;100.00
71666;BME280;59503;53.486;10.196;2024-02-04T11:46:19;101448.41;;;7.61;100.00
71666;BME280;59503;53.486;10.196;2024-02-04T11:48:51;101443.19;;;7.56;100.00
71666;BME280;59503;53.486;10.196;2024-02-04T11:51:18;101430.63;;;7.60;100.00
71666;BME280;59503;53.486;10.196;2024-02-04T11:53:46;101452.22;;;7.69;100.00
71666;BME280;59503;53.486;10.196;2024-02-04T11:56:13;101432.97;;;7.70;100.00
71666;BME280;59503;53.486;10.196;2024-02-04T11:58:39;101431.53;;;7.73;100.00
71666;BME280;59503;53.486;10.196;2024-02-04T12:01:09;101437.28;;;7.71;100.00
71666;BME280;59503;53.486;10.196;2024-02-04T12:03:35;101435.81;;;7.74;100.00
71666;BME280;59503;53.486;10.196;2024-02-04T12:06:03;101436.44;;;7.79;100.00
71666;BME280;59503;53.486;10.196;2024-02-04T12:08:30;101431.00;;;7.79;100.00
71666;BME280;59503;53.486;10.196;2024-02-04T12:10:57;101431.53;;;7.73;100.00
71666;BME280;59503;53.486;10.196;2024-02-04T12:13:24;101435.78;;;7.82;100.00
71666;BME280;59503;53.486;10.196;2024-02-04T12:15:50;101430.34;;;7.82;100.00
71666;BME280;59503;53.486;10.196;2024-02-04T12:18:15;101432.88;;;7.87;100.00
71666;BME280;59503;53.486;10.196;2024-02-04T12:20:45;101423.84;;;7.75;100.00
71666;BME280;59503;53.486;10.196;2024-02-04T12:23:12;101437.09;;;7.76;100.00
71666;BME280;59503;53.486;10.196;2024-02-04T12:25:38;101428.31;;;7.79;100.00
71666;BME280;59503;53.486;10.196;2024-02-04T12:28:04;101431.78;;;7.80;100.00
71666;BME280;59503;53.486;10.196;2024-02-04T12:30:31;101423.56;;;7.76;100.00
71666;BME280;59503;53.486;10.196;2024-02-04T12:33:01;101419.88;;;7.81;100.00
71666;BME280;59503;53.486;10.196;2024-02-04T12:35:27;101421.75;;;7.80;100.00
71666;BME280;59503;53.486;10.196;2024-02-04T12:37:54;101418.22;;;7.88;100.00
71666;BME280;59503;53.486;10.196;2024-02-04T12:40:30;101400.41;;;7.87;100.00
71666;BME280;59503;53.486;10.196;2024-02-04T12:43:00;101416.13;;;7.94;100.00
71666;BME280;59503;53.486;10.196;2024-02-04T12:45:30;101415.59;;;8.00;100.00